sensor_id;sensor_type;location;lat;lon;timestamp;P1;durP1;ratioP1;P2;durP2;ratioP2
22176;SDS011;11254;50.098;8.726;2023-09-12T00:00:10;21.23;;;11.05;;
22176;SDS011;11254;50.098;8.726;2023-09-12T00:02:39;22.48;;;11.50;;
22176;SDS011;11254;50.098;8.726;2023-09-12T00:05:07;21.58;;;11.43;;
22176;SDS011;11254;50.098;8.726;2023-09-12T00:07:36;18.00;;;11.77;;
22176;SDS011;11254;50.098;8.726;2023-09-12T00:10:04;22.27;;;11.55;;
22176;SDS011;11254;50.098;8.726;2023-09-12T00:12:37;23.90;;;11.70;;
22176;SDS011;11254;50.098;8.726;2023-09-12T00:15:06;24.50;;;11.40;;
22176;SDS011;11254;50.098;8.726;2023-09-12T00:17:36;18.08;;;10.98;;
22176;SDS011;11254;50.098;8.726;2023-09-12T00:20:04;19.58;;;11.05;;
22176;SDS011;11254;50.098;8.726;2023-09-12T00:22:34;21.90;;;11.27;;
22176;SDS011;11254;50.098;8.726;2023-09-12T00:25:02;20.65;;;11.45;;
22176;SDS011;11254;50.098;8.726;2023-09-12T00:27:31;21.88;;;11.55;;
22176;SDS011;11254;50.098;8.726;2023-09-12T00:29:59;26.42;;;12.07;;
22176;SDS011;11254;50.098;8.726;2023-09-12T00:32:28;22.38;;;12.18;;
22176;SDS011;11254;50.098;8.726;2023-09-12T00:34:58;26.20;;;12.15;;
22176;SDS011;11254;50.098;8.726;2023-09-12T00:37:26;21.25;;;11.30;;
22176;SDS011;11254;50.098;8.726;2023-09-12T00:39:54;19.38;;;11.52;;
22176;SDS011;11254;50.098;8.726;2023-09-12T00:42:24;17.77;;;11.98;;
22176;SDS011;11254;50.098;8.726;2023-09-12T00:44:53;17.80;;;12.07;;
22176;SDS011;11254;50.098;8.726;2023-09-12T00:47:21;22.00;;;12.40;;
22176;SDS011;11254;50.098;8.726;2023-09-12T00:49:50;21.85;;;12.10;;
22176;SDS011;11254;50.098;8.726;2023-09-12T00:52:23;19.67;;;11.23;;
22176;SDS011;11254;50.098;8.726;2023-09-12T00:54:52;18.70;;;11.15;;
22176;SDS011;11254;50.098;8.726;2023-09-12T00:57:21;22.70;;;12.07;;
22176;SDS011;11254;50.098;8.726;2023-09-12T00:59:49;18.83;;;11.50;;
22176;SDS011;11254;50.098;8.726;2023-09-12T01:02:18;17.02;;;11.05;;
22176;SDS011;11254;50.098;8.726;2023-09-12T01:04:47;21.25;;;11.60;;
22176;SDS011;11254;50.098;8.726;2023-09-12T01:07:15;22.38;;;12.38;;
22176;SDS011;11254;50.098;8.726;2023-09-12T01:09:45;21.38;;;12.48;;
22176;SDS011;11254;50.098;8.726;2023-09-12T01:12:13;23.38;;;12.45;;
22176;SDS011;11254;50.098;8.726;2023-09-12T01:14:42;22.52;;;12.65;;
22176;SDS011;11254;50.098;8.726;2023-09-12T01:17:10;22.67;;;13.00;;
22176;SDS011;11254;50.098;8.726;2023-09-12T01:19:39;23.35;;;12.77;;
22176;SDS011;11254;50.098;8.726;2023-09-12T01:25:14;20.00;;;12.65;;
22176;SDS011;11254;50.098;8.726;2023-09-12T01:27:50;21.73;;;12.63;;
22176;SDS011;11254;50.098;8.726;2023-09-12T01:30:20;27.65;;;13.10;;
22176;SDS011;11254;50.098;8.726;2023-09-12T01:32:49;19.25;;;12.27;;
22176;SDS011;11254;50.098;8.726;2023-09-12T01:35:18;20.80;;;12.70;;
22176;SDS011;11254;50.098;8.726;2023-09-12T01:37:46;23.92;;;12.35;;
22176;SDS011;11254;50.098;8.726;2023-09-12T01:40:15;22.00;;;12.38;;
22176;SDS011;11254;50.098;8.726;2023-09-12T01:42:44;23.35;;;13.38;;
22176;SDS011;11254;50.098;8.726;2023-09-12T01:45:15;19.08;;;12.45;;
22176;SDS011;11254;50.098;8.726;2023-09-12T01:47:50;23.00;;;12.40;;
22176;SDS011;11254;50.098;8.726;2023-09-12T01:50:18;24.42;;;12.10;;
22176;SDS011;11254;50.098;8.726;2023-09-12T01:52:47;21.15;;;11.95;;
22176;SDS011;11254;50.098;8.726;2023-09-12T01:55:17;19.33;;;12.23;;
22176;SDS011;11254;50.098;8.726;2023-09-12T01:57:46;20.48;;;11.40;;
22176;SDS011;11254;50.098;8.726;2023-09-12T02:00:16;19.92;;;12.05;;
22176;SDS011;11254;50.098;8.726;2023-09-12T02:02:46;21.10;;;12.00;;
22176;SDS011;11254;50.098;8.726;2023-09-12T02:05:15;21.25;;;12.60;;
22176;SDS011;11254;50.098;8.726;2023-09-12T02:07:45;20.58;;;11.85;;
22176;SDS011;11254;50.098;8.726;2023-09-12T02:10:14;21.40;;;11.70;;
22176;SDS011;11254;50.098;8.726;2023-09-12T02:12:43;19.30;;;11.85;;
22176;SDS011;11254;50.098;8.726;2023-09-12T02:15:11;19.15;;;12.02;;
22176;SDS011;11254;50.098;8.726;2023-09-12T02:17:41;21.50;;;11.95;;
22176;SDS011;11254;50.098;8.726;2023-09-12T02:20:10;19.70;;;11.80;;
22176;SDS011;11254;50.098;8.726;2023-09-12T02:22:38;22.30;;;12.15;;
22176;SDS011;11254;50.098;8.726;2023-09-12T02:25:07;18.48;;;11.02;;
22176;SDS011;11254;50.098;8.726;2023-09-12T02:27:35;20.42;;;11.80;;
22176;SDS011;11254;50.098;8.726;2023-09-12T02:30:04;17.00;;;11.00;;
22176;SDS011;11254;50.098;8.726;2023-09-12T02:32:33;21.75;;;11.57;;
22176;SDS011;11254;50.098;8.726;2023-09-12T02:35:04;20.17;;;12.20;;
22176;SDS011;11254;50.098;8.726;2023-09-12T02:37:32;20.35;;;11.77;;
22176;SDS011;11254;50.098;8.726;2023-09-12T02:40:02;21.77;;;12.23;;
22176;SDS011;11254;50.098;8.726;2023-09-12T02:42:31;17.58;;;10.90;;
22176;SDS011;11254;50.098;8.726;2023-09-12T02:45:00;19.80;;;10.98;;
22176;SDS011;11254;50.098;8.726;2023-09-12T02:47:29;23.38;;;12.82;;
22176;SDS011;11254;50.098;8.726;2023-09-12T02:49:58;18.65;;;10.95;;
22176;SDS011;11254;50.098;8.726;2023-09-12T02:52:27;21.33;;;11.93;;
22176;SDS011;11254;50.098;8.726;2023-09-12T02:54:56;18.65;;;11.20;;
22176;SDS011;11254;50.098;8.726;2023-09-12T02:57:24;20.00;;;11.25;;
22176;SDS011;11254;50.098;8.726;2023-09-12T02:59:53;24.08;;;11.60;;
22176;SDS011;11254;50.098;8.726;2023-09-12T03:02:21;18.98;;;11.02;;
22176;SDS011;11254;50.098;8.726;2023-09-12T03:04:49;21.85;;;11.88;;
22176;SDS011;11254;50.098;8.726;2023-09-12T03:07:18;24.00;;;11.85;;
22176;SDS011;11254;50.098;8.726;2023-09-12T03:09:48;19.23;;;11.63;;
22176;SDS011;11254;50.098;8.726;2023-09-12T03:12:17;24.02;;;11.57;;
22176;SDS011;11254;50.098;8.726;2023-09-12T03:14:45;19.63;;;11.88;;
22176;SDS011;11254;50.098;8.726;2023-09-12T03:17:14;23.38;;;11.95;;
22176;SDS011;11254;50.098;8.726;2023-09-12T03:19:42;23.67;;;12.10;;
22176;SDS011;11254;50.098;8.726;2023-09-12T03:22:10;18.75;;;11.43;;
22176;SDS011;11254;50.098;8.726;2023-09-12T03:24:39;24.40;;;11.80;;
22176;SDS011;11254;50.098;8.726;2023-09-12T03:27:08;20.23;;;11.48;;
22176;SDS011;11254;50.098;8.726;2023-09-12T03:29:37;21.75;;;11.32;;
22176;SDS011;11254;50.098;8.726;2023-09-12T03:32:05;19.73;;;11.35;;
22176;SDS011;11254;50.098;8.726;2023-09-12T03:34:34;21.30;;;11.68;;
22176;SDS011;11254;50.098;8.726;2023-09-12T03:37:02;21.95;;;11.77;;
22176;SDS011;11254;50.098;8.726;2023-09-12T03:39:31;20.23;;;11.65;;
22176;SDS011;11254;50.098;8.726;2023-09-12T03:42:00;22.13;;;11.27;;
22176;SDS011;11254;50.098;8.726;2023-09-12T03:44:30;20.40;;;11.82;;
22176;SDS011;11254;50.098;8.726;2023-09-12T03:46:58;24.15;;;11.65;;
22176;SDS011;11254;50.098;8.726;2023-09-12T03:49:27;21.48;;;11.25;;
22176;SDS011;11254;50.098;8.726;2023-09-12T03:51:56;22.05;;;12.13;;
22176;SDS011;11254;50.098;8.726;2023-09-12T03:54:25;18.08;;;11.25;;
22176;SDS011;11254;50.098;8.726;2023-09-12T03:56:53;21.00;;;11.45;;
22176;SDS011;11254;50.098;8.726;2023-09-12T03:59:22;18.70;;;10.45;;
22176;SDS011;11254;50.098;8.726;2023-09-12T04:01:51;16.92;;;10.07;;
22176;SDS011;11254;50.098;8.726;2023-09-12T04:04:20;19.73;;;11.38;;
22176;SDS011;11254;50.098;8.726;2023-09-12T04:06:48;16.92;;;9.82;;
22176;SDS011;11254;50.098;8.726;2023-09-12T04:09:17;19.27;;;11.35;;
22176;SDS011;11254;50.098;8.726;2023-09-12T04:11:45;16.42;;;10.30;;
22176;SDS011;11254;50.098;8.726;2023-09-12T04:14:17;19.95;;;10.35;;
22176;SDS011;11254;50.098;8.726;2023-09-12T04:16:45;18.98;;;10.15;;
22176;SDS011;11254;50.098;8.726;2023-09-12T04:19:15;15.95;;;9.80;;
22176;SDS011;11254;50.098;8.726;2023-09-12T04:21:43;22.92;;;10.95;;
22176;SDS011;11254;50.098;8.726;2023-09-12T04:24:12;21.58;;;11.68;;
22176;SDS011;11254;50.098;8.726;2023-09-12T04:26:42;20.00;;;11.43;;
22176;SDS011;11254;50.098;8.726;2023-09-12T04:29:12;21.35;;;10.57;;
22176;SDS011;11254;50.098;8.726;2023-09-12T04:31:40;23.17;;;11.40;;
22176;SDS011;11254;50.098;8.726;2023-09-12T04:34:09;18.90;;;10.32;;
22176;SDS011;11254;50.098;8.726;2023-09-12T04:36:38;18.98;;;10.90;;
22176;SDS011;11254;50.098;8.726;2023-09-12T04:39:07;19.23;;;10.73;;
22176;SDS011;11254;50.098;8.726;2023-09-12T04:41:36;20.63;;;10.88;;
22176;SDS011;11254;50.098;8.726;2023-09-12T04:44:05;18.13;;;11.25;;
22176;SDS011;11254;50.098;8.726;2023-09-12T04:46:33;22.30;;;10.63;;
22176;SDS011;11254;50.098;8.726;2023-09-12T04:49:02;18.27;;;10.35;;
22176;SDS011;11254;50.098;8.726;2023-09-12T04:51:31;18.67;;;10.90;;
22176;SDS011;11254;50.098;8.726;2023-09-12T04:54:00;20.77;;;12.05;;
22176;SDS011;11254;50.098;8.726;2023-09-12T04:56:29;17.88;;;10.32;;
22176;SDS011;11254;50.098;8.726;2023-09-12T04:58:57;20.95;;;9.95;;
22176;SDS011;11254;50.098;8.726;2023-09-12T05:01:26;18.75;;;10.93;;
22176;SDS011;11254;50.098;8.726;2023-09-12T05:03:54;18.25;;;10.63;;
22176;SDS011;11254;50.098;8.726;2023-09-12T05:06:23;23.65;;;11.60;;
22176;SDS011;11254;50.098;8.726;2023-09-12T05:08:51;21.90;;;11.60;;
22176;SDS011;11254;50.098;8.726;2023-09-12T05:11:22;15.00;;;9.90;;
22176;SDS011;11254;50.098;8.726;2023-09-12T05:13:50;20.50;;;10.65;;
22176;SDS011;11254;50.098;8.726;2023-09-12T05:16:19;24.88;;;11.25;;
22176;SDS011;11254;50.098;8.726;2023-09-12T05:18:48;20.55;;;10.95;;
22176;SDS011;11254;50.098;8.726;2023-09-12T05:21:17;17.70;;;10.82;;
22176;SDS011;11254;50.098;8.726;2023-09-12T05:23:46;15.98;;;10.10;;
22176;SDS011;11254;50.098;8.726;2023-09-12T05:26:14;19.83;;;10.43;;
22176;SDS011;11254;50.098;8.726;2023-09-12T05:28:44;18.63;;;10.25;;
22176;SDS011;11254;50.098;8.726;2023-09-12T05:31:12;19.70;;;11.43;;
22176;SDS011;11254;50.098;8.726;2023-09-12T05:33:41;20.42;;;10.93;;
22176;SDS011;11254;50.098;8.726;2023-09-12T05:36:09;17.00;;;10.43;;
22176;SDS011;11254;50.098;8.726;2023-09-12T05:38:38;18.65;;;11.10;;
22176;SDS011;11254;50.098;8.726;2023-09-12T05:41:08;18.10;;;10.88;;
22176;SDS011;11254;50.098;8.726;2023-09-12T05:43:36;19.10;;;10.98;;
22176;SDS011;11254;50.098;8.726;2023-09-12T05:46:06;22.90;;;11.00;;
22176;SDS011;11254;50.098;8.726;2023-09-12T05:48:34;21.80;;;11.20;;
22176;SDS011;11254;50.098;8.726;2023-09-12T05:51:03;21.05;;;10.85;;
22176;SDS011;11254;50.098;8.726;2023-09-12T05:53:31;18.98;;;9.98;;
22176;SDS011;11254;50.098;8.726;2023-09-12T05:56:00;21.23;;;11.07;;
22176;SDS011;11254;50.098;8.726;2023-09-12T05:58:28;19.80;;;10.90;;
22176;SDS011;11254;50.098;8.726;2023-09-12T06:00:57;27.90;;;10.57;;
22176;SDS011;11254;50.098;8.726;2023-09-12T06:03:29;20.50;;;10.20;;
22176;SDS011;11254;50.098;8.726;2023-09-12T06:05:58;18.98;;;10.98;;
22176;SDS011;11254;50.098;8.726;2023-09-12T06:08:27;18.88;;;10.07;;
22176;SDS011;11254;50.098;8.726;2023-09-12T06:10:56;20.75;;;10.07;;
22176;SDS011;11254;50.098;8.726;2023-09-12T06:13:24;24.05;;;9.82;;
22176;SDS011;11254;50.098;8.726;2023-09-12T06:15:52;16.90;;;9.00;;
22176;SDS011;11254;50.098;8.726;2023-09-12T06:18:21;22.80;;;9.82;;
22176;SDS011;11254;50.098;8.726;2023-09-12T06:20:51;19.40;;;10.70;;
22176;SDS011;11254;50.098;8.726;2023-09-12T06:23:20;18.77;;;10.85;;
22176;SDS011;11254;50.098;8.726;2023-09-12T06:25:48;21.83;;;10.85;;
22176;SDS011;11254;50.098;8.726;2023-09-12T06:28:24;19.25;;;10.10;;
22176;SDS011;11254;50.098;8.726;2023-09-12T06:30:52;18.38;;;9.32;;
22176;SDS011;11254;50.098;8.726;2023-09-12T06:33:21;21.63;;;8.90;;
22176;SDS011;11254;50.098;8.726;2023-09-12T06:35:49;20.08;;;8.68;;
22176;SDS011;11254;50.098;8.726;2023-09-12T06:38:21;18.63;;;7.60;;
22176;SDS011;11254;50.098;8.726;2023-09-12T06:40:49;17.38;;;9.05;;
22176;SDS011;11254;50.098;8.726;2023-09-12T06:43:18;21.40;;;9.02;;
22176;SDS011;11254;50.098;8.726;2023-09-12T06:45:47;14.52;;;8.27;;
22176;SDS011;11254;50.098;8.726;2023-09-12T06:48:15;17.20;;;8.90;;
22176;SDS011;11254;50.098;8.726;2023-09-12T06:50:44;19.15;;;8.43;;
22176;SDS011;11254;50.098;8.726;2023-09-12T06:53:17;13.85;;;7.90;;
22176;SDS011;11254;50.098;8.726;2023-09-12T06:55:46;16.98;;;9.45;;
22176;SDS011;11254;50.098;8.726;2023-09-12T06:58:15;15.52;;;7.70;;
22176;SDS011;11254;50.098;8.726;2023-09-12T07:00:43;17.38;;;9.38;;
22176;SDS011;11254;50.098;8.726;2023-09-12T07:03:12;17.10;;;8.85;;
22176;SDS011;11254;50.098;8.726;2023-09-12T07:05:42;17.30;;;8.52;;
22176;SDS011;11254;50.098;8.726;2023-09-12T07:08:11;15.55;;;8.45;;
22176;SDS011;11254;50.098;8.726;2023-09-12T07:10:43;19.70;;;8.68;;
22176;SDS011;11254;50.098;8.726;2023-09-12T07:13:14;20.60;;;8.52;;
22176;SDS011;11254;50.098;8.726;2023-09-12T07:15:45;13.00;;;8.20;;
22176;SDS011;11254;50.098;8.726;2023-09-12T07:18:17;18.27;;;8.15;;
22176;SDS011;11254;50.098;8.726;2023-09-12T07:20:56;16.60;;;8.40;;
22176;SDS011;11254;50.098;8.726;2023-09-12T07:23:25;18.98;;;8.10;;
22176;SDS011;11254;50.098;8.726;2023-09-12T07:25:54;17.98;;;8.15;;
22176;SDS011;11254;50.098;8.726;2023-09-12T07:28:25;16.00;;;7.75;;
22176;SDS011;11254;50.098;8.726;2023-09-12T07:30:56;15.73;;;7.95;;
22176;SDS011;11254;50.098;8.726;2023-09-12T07:33:25;15.45;;;8.23;;
22176;SDS011;11254;50.098;8.726;2023-09-12T07:35:54;14.52;;;8.38;;
22176;SDS011;11254;50.098;8.726;2023-09-12T07:38:22;15.82;;;8.00;;
22176;SDS011;11254;50.098;8.726;2023-09-12T07:40:50;14.63;;;7.55;;
22176;SDS011;11254;50.098;8.726;2023-09-12T07:43:19;14.00;;;7.85;;
22176;SDS011;11254;50.098;8.726;2023-09-12T07:45:48;14.23;;;6.43;;
22176;SDS011;11254;50.098;8.726;2023-09-12T07:48:17;14.18;;;6.65;;
22176;SDS011;11254;50.098;8.726;2023-09-12T07:50:46;15.20;;;6.78;;
22176;SDS011;11254;50.098;8.726;2023-09-12T07:53:14;13.25;;;6.82;;
22176;SDS011;11254;50.098;8.726;2023-09-12T07:55:43;17.85;;;7.35;;
22176;SDS011;11254;50.098;8.726;2023-09-12T07:58:13;11.68;;;7.03;;
22176;SDS011;11254;50.098;8.726;2023-09-12T08:00:43;18.25;;;6.25;;
22176;SDS011;11254;50.098;8.726;2023-09-12T08:03:17;9.48;;;6.15;;
22176;SDS011;11254;50.098;8.726;2023-09-12T08:05:56;18.73;;;7.25;;
22176;SDS011;11254;50.098;8.726;2023-09-12T08:08:24;14.65;;;6.90;;
22176;SDS011;11254;50.098;8.726;2023-09-12T08:10:55;14.88;;;6.32;;
22176;SDS011;11254;50.098;8.726;2023-09-12T08:13:28;12.77;;;7.32;;
22176;SDS011;11254;50.098;8.726;2023-09-12T08:15:57;17.10;;;7.95;;
22176;SDS011;11254;50.098;8.726;2023-09-12T08:18:28;13.23;;;6.68;;
22176;SDS011;11254;50.098;8.726;2023-09-12T08:20:57;13.40;;;6.55;;
22176;SDS011;11254;50.098;8.726;2023-09-12T08:23:25;15.88;;;7.43;;
22176;SDS011;11254;50.098;8.726;2023-09-12T08:25:54;14.48;;;7.13;;
22176;SDS011;11254;50.098;8.726;2023-09-12T08:28:22;12.90;;;7.00;;
22176;SDS011;11254;50.098;8.726;2023-09-12T08:30:51;13.80;;;6.65;;
22176;SDS011;11254;50.098;8.726;2023-09-12T08:33:19;13.13;;;6.90;;
22176;SDS011;11254;50.098;8.726;2023-09-12T08:35:53;16.17;;;7.75;;
22176;SDS011;11254;50.098;8.726;2023-09-12T08:38:21;10.32;;;7.57;;
22176;SDS011;11254;50.098;8.726;2023-09-12T08:40:50;12.27;;;7.18;;
22176;SDS011;11254;50.098;8.726;2023-09-12T08:43:19;13.55;;;7.07;;
22176;SDS011;11254;50.098;8.726;2023-09-12T08:45:48;13.55;;;7.35;;
22176;SDS011;11254;50.098;8.726;2023-09-12T08:48:16;14.38;;;7.32;;
22176;SDS011;11254;50.098;8.726;2023-09-12T08:50:49;14.68;;;7.57;;
22176;SDS011;11254;50.098;8.726;2023-09-12T08:53:21;13.38;;;6.82;;
22176;SDS011;11254;50.098;8.726;2023-09-12T08:55:49;13.95;;;6.82;;
22176;SDS011;11254;50.098;8.726;2023-09-12T08:58:20;11.90;;;6.63;;
22176;SDS011;11254;50.098;8.726;2023-09-12T09:00:49;16.00;;;7.70;;
22176;SDS011;11254;50.098;8.726;2023-09-12T09:03:19;13.75;;;7.25;;
22176;SDS011;11254;50.098;8.726;2023-09-12T09:05:51;10.98;;;7.55;;
22176;SDS011;11254;50.098;8.726;2023-09-12T09:08:21;18.02;;;7.28;;
22176;SDS011;11254;50.098;8.726;2023-09-12T09:10:56;14.75;;;6.97;;
22176;SDS011;11254;50.098;8.726;2023-09-12T09:13:25;15.23;;;6.40;;
22176;SDS011;11254;50.098;8.726;2023-09-12T09:16:08;11.23;;;6.63;;
22176;SDS011;11254;50.098;8.726;2023-09-12T09:18:53;13.98;;;6.93;;
22176;SDS011;11254;50.098;8.726;2023-09-12T09:21:23;10.30;;;6.40;;
22176;SDS011;11254;50.098;8.726;2023-09-12T09:23:54;12.77;;;6.65;;
22176;SDS011;11254;50.098;8.726;2023-09-12T09:26:23;14.52;;;7.22;;
22176;SDS011;11254;50.098;8.726;2023-09-12T09:29:03;14.98;;;7.47;;
22176;SDS011;11254;50.098;8.726;2023-09-12T09:31:32;12.43;;;7.30;;
22176;SDS011;11254;50.098;8.726;2023-09-12T09:34:01;11.85;;;6.70;;
22176;SDS011;11254;50.098;8.726;2023-09-12T09:36:31;10.52;;;6.45;;
22176;SDS011;11254;50.098;8.726;2023-09-12T09:39:01;11.30;;;6.45;;
22176;SDS011;11254;50.098;8.726;2023-09-12T09:41:31;13.00;;;6.80;;
22176;SDS011;11254;50.098;8.726;2023-09-12T09:44:00;12.93;;;6.95;;
22176;SDS011;11254;50.098;8.726;2023-09-12T09:46:30;11.15;;;6.40;;
22176;SDS011;11254;50.098;8.726;2023-09-12T09:48:59;14.13;;;7.47;;
22176;SDS011;11254;50.098;8.726;2023-09-12T09:51:27;11.40;;;6.50;;
22176;SDS011;11254;50.098;8.726;2023-09-12T09:53:58;15.73;;;6.50;;
22176;SDS011;11254;50.098;8.726;2023-09-12T09:56:28;14.60;;;6.07;;
22176;SDS011;11254;50.098;8.726;2023-09-12T09:58:58;13.20;;;7.40;;
22176;SDS011;11254;50.098;8.726;2023-09-12T10:01:27;15.82;;;7.07;;
22176;SDS011;11254;50.098;8.726;2023-09-12T10:04:00;13.13;;;6.63;;
22176;SDS011;11254;50.098;8.726;2023-09-12T10:06:30;11.10;;;6.82;;
22176;SDS011;11254;50.098;8.726;2023-09-12T10:09:01;10.95;;;6.72;;
22176;SDS011;11254;50.098;8.726;2023-09-12T10:11:35;13.50;;;6.50;;
22176;SDS011;11254;50.098;8.726;2023-09-12T10:14:05;15.50;;;7.25;;
22176;SDS011;11254;50.098;8.726;2023-09-12T10:16:34;13.63;;;6.40;;
22176;SDS011;11254;50.098;8.726;2023-09-12T10:19:04;9.27;;;6.25;;
22176;SDS011;11254;50.098;8.726;2023-09-12T10:21:37;13.65;;;6.78;;
22176;SDS011;11254;50.098;8.726;2023-09-12T10:24:09;12.38;;;6.93;;
22176;SDS011;11254;50.098;8.726;2023-09-12T10:26:39;11.10;;;6.55;;
22176;SDS011;11254;50.098;8.726;2023-09-12T10:29:10;11.77;;;6.70;;
22176;SDS011;11254;50.098;8.726;2023-09-12T10:31:38;13.30;;;6.80;;
22176;SDS011;11254;50.098;8.726;2023-09-12T10:34:10;15.82;;;7.65;;
22176;SDS011;11254;50.098;8.726;2023-09-12T10:36:42;16.05;;;7.32;;
22176;SDS011;11254;50.098;8.726;2023-09-12T10:39:11;13.95;;;7.05;;
22176;SDS011;11254;50.098;8.726;2023-09-12T10:41:42;16.83;;;8.60;;
22176;SDS011;11254;50.098;8.726;2023-09-12T10:44:11;15.77;;;7.90;;
22176;SDS011;11254;50.098;8.726;2023-09-12T10:46:41;15.05;;;6.63;;
22176;SDS011;11254;50.098;8.726;2023-09-12T10:49:10;17.40;;;8.15;;
22176;SDS011;11254;50.098;8.726;2023-09-12T10:51:39;16.13;;;7.95;;
22176;SDS011;11254;50.098;8.726;2023-09-12T10:54:08;13.52;;;7.43;;
22176;SDS011;11254;50.098;8.726;2023-09-12T10:56:37;16.17;;;7.10;;
22176;SDS011;11254;50.098;8.726;2023-09-12T10:59:10;13.02;;;7.47;;
22176;SDS011;11254;50.098;8.726;2023-09-12T11:01:40;11.80;;;7.00;;
22176;SDS011;11254;50.098;8.726;2023-09-12T11:12:36;10.45;;;7.82;;
22176;SDS011;11254;50.098;8.726;2023-09-12T11:15:07;39.78;;;9.13;;
22176;SDS011;11254;50.098;8.726;2023-09-12T11:17:37;13.55;;;7.43;;
22176;SDS011;11254;50.098;8.726;2023-09-12T11:20:06;14.52;;;7.93;;
22176;SDS011;11254;50.098;8.726;2023-09-12T11:22:36;16.05;;;7.93;;
22176;SDS011;11254;50.098;8.726;2023-09-12T11:25:15;16.58;;;7.97;;
22176;SDS011;11254;50.098;8.726;2023-09-12T11:27:44;14.40;;;7.55;;
22176;SDS011;11254;50.098;8.726;2023-09-12T11:30:14;12.45;;;7.47;;
22176;SDS011;11254;50.098;8.726;2023-09-12T11:32:44;15.40;;;7.95;;
22176;SDS011;11254;50.098;8.726;2023-09-12T11:35:14;21.08;;;8.65;;
22176;SDS011;11254;50.098;8.726;2023-09-12T11:37:48;14.20;;;7.95;;
22176;SDS011;11254;50.098;8.726;2023-09-12T11:40:17;13.98;;;8.50;;
22176;SDS011;11254;50.098;8.726;2023-09-12T11:42:46;22.48;;;8.10;;
22176;SDS011;11254;50.098;8.726;2023-09-12T11:45:18;14.45;;;8.15;;
22176;SDS011;11254;50.098;8.726;2023-09-12T11:47:50;15.20;;;7.95;;
22176;SDS011;11254;50.098;8.726;2023-09-12T11:50:25;13.35;;;7.95;;
22176;SDS011;11254;50.098;8.726;2023-09-12T11:53:00;12.10;;;7.75;;
22176;SDS011;11254;50.098;8.726;2023-09-12T11:55:33;14.77;;;8.43;;
22176;SDS011;11254;50.098;8.726;2023-09-12T11:58:02;13.63;;;8.27;;
22176;SDS011;11254;50.098;8.726;2023-09-12T12:00:32;16.45;;;8.40;;
22176;SDS011;11254;50.098;8.726;2023-09-12T12:03:04;13.05;;;8.65;;
22176;SDS011;11254;50.098;8.726;2023-09-12T12:05:38;18.08;;;8.50;;
22176;SDS011;11254;50.098;8.726;2023-09-12T12:08:08;15.45;;;8.60;;
22176;SDS011;11254;50.098;8.726;2023-09-12T12:10:56;13.13;;;7.65;;
22176;SDS011;11254;50.098;8.726;2023-09-12T12:13:26;17.17;;;8.75;;
22176;SDS011;11254;50.098;8.726;2023-09-12T12:16:15;18.67;;;8.43;;
22176;SDS011;11254;50.098;8.726;2023-09-12T12:18:45;20.10;;;8.73;;
22176;SDS011;11254;50.098;8.726;2023-09-12T12:21:14;11.98;;;8.13;;
22176;SDS011;11254;50.098;8.726;2023-09-12T12:23:42;14.55;;;8.38;;
22176;SDS011;11254;50.098;8.726;2023-09-12T12:26:11;18.70;;;9.05;;
22176;SDS011;11254;50.098;8.726;2023-09-12T12:28:40;17.58;;;8.98;;
22176;SDS011;11254;50.098;8.726;2023-09-12T12:31:08;16.42;;;8.77;;
22176;SDS011;11254;50.098;8.726;2023-09-12T12:33:38;14.27;;;9.07;;
22176;SDS011;11254;50.098;8.726;2023-09-12T12:36:27;14.15;;;8.27;;
22176;SDS011;11254;50.098;8.726;2023-09-12T12:38:56;18.67;;;8.80;;
22176;SDS011;11254;50.098;8.726;2023-09-12T12:41:25;13.88;;;8.98;;
22176;SDS011;11254;50.098;8.726;2023-09-12T12:44:05;16.13;;;8.38;;
22176;SDS011;11254;50.098;8.726;2023-09-12T12:46:34;14.45;;;9.00;;
22176;SDS011;11254;50.098;8.726;2023-09-12T12:49:18;11.63;;;8.23;;
22176;SDS011;11254;50.098;8.726;2023-09-12T12:51:48;15.10;;;8.70;;
22176;SDS011;11254;50.098;8.726;2023-09-12T12:54:17;16.25;;;8.65;;
22176;SDS011;11254;50.098;8.726;2023-09-12T12:56:45;15.32;;;8.80;;
22176;SDS011;11254;50.098;8.726;2023-09-12T12:59:14;14.48;;;8.85;;
22176;SDS011;11254;50.098;8.726;2023-09-12T13:01:44;12.75;;;8.32;;
22176;SDS011;11254;50.098;8.726;2023-09-12T13:04:24;15.40;;;8.00;;
22176;SDS011;11254;50.098;8.726;2023-09-12T13:07:02;16.02;;;8.90;;
22176;SDS011;11254;50.098;8.726;2023-09-12T13:09:30;12.60;;;8.48;;
22176;SDS011;11254;50.098;8.726;2023-09-12T13:11:59;15.90;;;9.05;;
22176;SDS011;11254;50.098;8.726;2023-09-12T13:14:28;20.23;;;8.55;;
22176;SDS011;11254;50.098;8.726;2023-09-12T13:16:58;13.75;;;8.52;;
22176;SDS011;11254;50.098;8.726;2023-09-12T13:19:28;14.45;;;9.38;;
22176;SDS011;11254;50.098;8.726;2023-09-12T13:21:56;16.08;;;9.07;;
22176;SDS011;11254;50.098;8.726;2023-09-12T13:24:25;15.00;;;9.38;;
22176;SDS011;11254;50.098;8.726;2023-09-12T13:26:54;20.15;;;9.38;;
22176;SDS011;11254;50.098;8.726;2023-09-12T13:29:22;16.30;;;9.40;;
22176;SDS011;11254;50.098;8.726;2023-09-12T13:31:50;21.25;;;10.15;;
22176;SDS011;11254;50.098;8.726;2023-09-12T13:34:19;13.07;;;8.57;;
22176;SDS011;11254;50.098;8.726;2023-09-12T13:36:49;14.63;;;8.60;;
22176;SDS011;11254;50.098;8.726;2023-09-12T13:39:35;14.82;;;9.15;;
22176;SDS011;11254;50.098;8.726;2023-09-12T13:42:05;13.70;;;8.80;;
22176;SDS011;11254;50.098;8.726;2023-09-12T13:44:34;16.38;;;9.65;;
22176;SDS011;11254;50.098;8.726;2023-09-12T13:47:03;14.13;;;9.05;;
22176;SDS011;11254;50.098;8.726;2023-09-12T13:49:31;16.90;;;9.00;;
22176;SDS011;11254;50.098;8.726;2023-09-12T13:52:01;14.00;;;8.60;;
22176;SDS011;11254;50.098;8.726;2023-09-12T13:54:29;14.45;;;9.73;;
22176;SDS011;11254;50.098;8.726;2023-09-12T13:56:58;13.73;;;8.85;;
22176;SDS011;11254;50.098;8.726;2023-09-12T13:59:26;13.57;;;9.50;;
22176;SDS011;11254;50.098;8.726;2023-09-12T14:02:09;13.38;;;8.95;;
22176;SDS011;11254;50.098;8.726;2023-09-12T14:04:39;17.50;;;9.50;;
22176;SDS011;11254;50.098;8.726;2023-09-12T14:07:18;19.08;;;9.55;;
22176;SDS011;11254;50.098;8.726;2023-09-12T14:09:48;12.90;;;8.77;;
22176;SDS011;11254;50.098;8.726;2023-09-12T14:12:17;20.83;;;9.93;;
22176;SDS011;11254;50.098;8.726;2023-09-12T14:14:53;14.93;;;9.20;;
22176;SDS011;11254;50.098;8.726;2023-09-12T14:17:33;14.43;;;9.25;;
22176;SDS011;11254;50.098;8.726;2023-09-12T14:20:06;13.85;;;8.55;;
22176;SDS011;11254;50.098;8.726;2023-09-12T14:22:36;13.73;;;8.85;;
22176;SDS011;11254;50.098;8.726;2023-09-12T14:25:05;14.98;;;9.13;;
22176;SDS011;11254;50.098;8.726;2023-09-12T14:27:35;15.15;;;9.50;;
22176;SDS011;11254;50.098;8.726;2023-09-12T14:30:04;13.93;;;9.63;;
22176;SDS011;11254;50.098;8.726;2023-09-12T14:32:33;13.60;;;9.13;;
22176;SDS011;11254;50.098;8.726;2023-09-12T14:35:01;15.20;;;8.85;;
22176;SDS011;11254;50.098;8.726;2023-09-12T14:37:29;14.18;;;9.32;;
22176;SDS011;11254;50.098;8.726;2023-09-12T14:40:00;16.38;;;9.13;;
22176;SDS011;11254;50.098;8.726;2023-09-12T14:42:29;16.13;;;9.70;;
22176;SDS011;11254;50.098;8.726;2023-09-12T14:44:58;16.20;;;9.07;;
22176;SDS011;11254;50.098;8.726;2023-09-12T14:47:26;14.45;;;8.57;;
22176;SDS011;11254;50.098;8.726;2023-09-12T14:49:56;13.48;;;9.43;;
22176;SDS011;11254;50.098;8.726;2023-09-12T14:52:25;14.45;;;8.98;;
22176;SDS011;11254;50.098;8.726;2023-09-12T14:54:56;13.70;;;9.32;;